Time;durP1;ratioP1;P1;durP2;ratioP2;P2;SDS_P1;SDS_P2;PMS_P1;PMS_P2;Temp;Humidity;BMP_temperature;BMP_pressure;BME280_temperature;BME280_humidity;BME280_pressure;Samples;Min_cycle;Max_cycle;Signal;HPM_P1;HPM_P2
2023/06/04 00:09:24;;;;;;;13.48;8.48;;;;;;;17.89;100.00;101249.53;21116458;28;20792;-77
2023/06/04 00:19:48;;;;;;;13.07;8.75;;;;;;;17.83;100.00;101261.13;21150443;28;20069;-76
2023/06/04 00:30:12;;;;;;;13.85;8.95;;;;;;;17.65;100.00;101268.38;21168171;27;20047;-77
2023/06/04 00:40:36;;;;;;;11.30;8.57;;;;;;;17.66;100.00;101275.47;21172000;27;20058;-76
2023/06/04 00:50:59;;;;;;;11.98;7.82;;;;;;;17.50;100.00;101272.84;21121686;27;20139;-76
2023/06/04 01:01:31;;;;;;;13.32;7.57;;;;;;;17.44;100.00;101277.31;21147890;27;20097;-76
2023/06/04 01:11:53;;;;;;;13.65;8.68;;;;;;;17.39;100.00;101266.66;21155514;28;20497;-76
2023/06/04 01:22:31;;;;;;;14.35;8.60;;;;;;;17.33;100.00;101271.13;21142633;27;20062;-77
2023/06/04 01:32:54;;;;;;;14.05;9.32;;;;;;;17.30;100.00;101266.69;21136488;28;20172;-77
2023/06/04 01:43:18;;;;;;;16.23;9.18;;;;;;;17.17;100.00;101254.31;21190209;27;20047;-76
2023/06/04 01:53:42;;;;;;;12.68;8.93;;;;;;;17.02;100.00;101255.22;21150887;27;20069;-76
2023/06/04 02:04:06;;;;;;;9.88;8.13;;;;;;;17.03;100.00;101258.78;21172975;27;20055;-77
2023/06/04 02:14:29;;;;;;;10.20;7.88;;;;;;;17.04;100.00;101258.78;21178558;27;20052;-77
2023/06/04 02:24:53;;;;;;;11.57;7.97;;;;;;;17.01;100.00;101253.44;21128484;27;20035;-77
2023/06/04 02:35:16;;;;;;;12.95;8.63;;;;;;;16.88;100.00;101281.03;21171831;27;20092;-77
2023/06/04 02:45:40;;;;;;;12.93;8.25;;;;;;;16.58;100.00;101294.38;21155223;27;20058;-76
2023/06/04 02:56:03;;;;;;;13.00;8.65;;;;;;;16.79;100.00;101288.19;21146875;28;20043;-76
2023/06/04 03:06:27;;;;;;;12.30;7.03;;;;;;;16.64;100.00;101295.31;21163625;27;20051;-76
2023/06/04 03:16:51;;;;;;;12.40;7.68;;;;;;;16.82;100.00;101305.06;21133348;27;20146;-76
2023/06/04 03:27:15;;;;;;;10.13;6.30;;;;;;;16.96;100.00;101308.59;21081255;28;20052;-76
2023/06/04 03:37:38;;;;;;;9.10;5.57;;;;;;;17.34;100.00;101313.81;21129458;28;20044;-75
2023/06/04 03:48:03;;;;;;;10.45;5.25;;;;;;;17.54;100.00;101327.09;21123237;28;20043;-75
2023/06/04 03:58:28;;;;;;;10.60;4.78;;;;;;;17.81;100.00;101334.16;21137201;27;20128;-75
2023/06/04 04:08:53;;;;;;;6.93;4.13;;;;;;;18.32;100.00;101338.28;21139563;28;20052;-76
2023/06/04 04:19:17;;;;;;;7.78;4.75;;;;;;;18.88;100.00;101358.41;21146335;27;20518;-76
2023/06/04 04:29:43;;;;;;;8.13;3.97;;;;;;;19.48;100.00;101368.53;21158344;27;20555;-76
2023/06/04 04:40:11;;;;;;;6.65;3.78;;;;;;;20.17;100.00;101362.28;21134480;28;20051;-79
2023/06/04 04:50:37;;;;;;;8.27;3.80;;;;;;;20.80;100.00;101360.44;21140911;28;20480;-78
2023/06/04 05:01:01;;;;;;;8.05;4.20;;;;;;;21.46;100.00;101381.66;21147441;28;20049;-79
2023/06/04 05:11:25;;;;;;;7.85;3.50;;;;;;;22.11;100.00;101380.34;21153972;27;20043;-78
2023/06/04 05:21:48;;;;;;;10.10;6.05;;;;;;;22.51;100.00;101355.19;21139050;28;20138;-76
2023/06/04 05:32:13;;;;;;;10.68;4.40;;;;;;;23.04;100.00;101317.03;21143945;28;20050;-76
2023/06/04 05:42:36;;;;;;;9.50;4.43;;;;;;;23.69;100.00;101291.88;21159789;27;20051;-76
2023/06/04 05:53:01;;;;;;;8.55;4.53;;;;;;;24.29;100.00;101294.50;21156592;27;20130;-77
2023/06/04 06:03:24;;;;;;;10.07;4.22;;;;;;;24.99;100.00;101284.03;21118150;28;20079;-77
2023/06/04 06:13:49;;;;;;;7.38;3.78;;;;;;;26.05;100.00;101295.38;21128157;27;20043;-77
2023/06/04 06:24:12;;;;;;;9.57;3.35;;;;;;;27.01;100.00;101291.38;21136397;27;20092;-77
2023/06/04 06:34:37;;;;;;;6.97;3.30;;;;;;;27.44;100.00;101304.75;21174125;27;20043;-76
2023/06/04 06:44:59;;;;;;;10.57;4.10;;;;;;;27.65;100.00;101295.66;21161374;27;20426;-76
2023/06/04 06:55:25;;;;;;;10.48;4.20;;;;;;;27.54;100.00;101298.00;21187001;27;20051;-76
2023/06/04 07:05:48;;;;;;;9.85;3.70;;;;;;;27.91;100.00;101297.16;21132691;28;20049;-77
2023/06/04 07:16:13;;;;;;;8.82;3.40;;;;;;;28.17;100.00;101297.75;21122716;27;20074;-77
2023/06/04 07:26:36;;;;;;;6.80;3.40;;;;;;;28.86;100.00;101304.25;21136453;28;20043;-77
2023/06/04 07:37:01;;;;;;;6.90;3.40;;;;;;;29.36;100.00;101311.59;21146270;28;20104;-77
2023/06/04 07:47:23;;;;;;;5.63;2.95;;;;;;;28.90;100.00;101324.88;21157791;28;20060;-77
2023/06/04 07:57:48;;;;;;;5.70;3.35;;;;;;;29.42;100.00;101335.75;21137815;28;20960;-77
2023/06/04 08:08:11;;;;;;;8.05;3.40;;;;;;;29.69;100.00;101342.44;21149316;28;20437;-77
2023/06/04 08:18:39;;;;;;;11.15;4.20;;;;;;;29.74;100.00;101348.50;21132083;28;20399;-76
2023/06/04 08:29:04;;;;;;;6.45;3.42;;;;;;;29.91;100.00;101350.31;21133454;28;20043;-76
2023/06/04 08:39:29;;;;;;;7.27;3.63;;;;;;;29.73;100.00;101364.94;21141312;27;20066;-76
2023/06/04 08:49:52;;;;;;;7.68;3.55;;;;;;;29.66;100.00;101369.84;21150806;27;20780;-76
2023/06/04 09:00:18;;;;;;;7.63;3.58;;;;;;;29.96;96.88;101354.56;21157877;27;20051;-77
2023/06/04 09:10:42;;;;;;;6.07;3.37;;;;;;;30.44;87.38;101364.53;21146161;27;20043;-76
2023/06/04 09:21:08;;;;;;;3.92;2.55;;;;;;;30.65;61.91;101351.56;21129689;28;20138;-76
2023/06/04 09:31:36;;;;;;;3.75;2.40;;;;;;;30.88;46.15;101347.44;21110585;27;20044;-78
2023/06/04 09:42:03;;;;;;;6.63;2.70;;;;;;;31.20;43.95;101331.91;21158745;27;20046;-77
2023/06/04 09:52:34;;;;;;;8.13;2.75;;;;;;;31.52;41.69;101333.50;21173946;27;20138;-77
2023/06/04 10:03:04;;;;;;;7.43;2.42;;;;;;;31.26;39.66;101326.06;21124006;27;20143;-77
2023/06/04 10:13:28;;;;;;;4.43;2.33;;;;;;;31.40;40.43;101337.00;21142930;28;20530;-77
2023/06/04 10:23:53;;;;;;;4.77;2.40;;;;;;;30.86;38.20;101331.16;21125494;27;20550;-77
2023/06/04 10:34:16;;;;;;;7.70;2.45;;;;;;;30.84;38.04;101333.13;21144725;27;20044;-77
2023/06/04 10:44:48;;;;;;;7.53;3.08;;;;;;;31.09;36.40;101345.31;21128655;28;20147;-77
2023/06/04 10:55:11;;;;;;;5.80;2.85;;;;;;;31.25;38.34;101341.53;21123352;28;20077;-77
2023/06/04 11:05:39;;;;;;;4.47;2.38;;;;;;;31.32;38.12;101349.34;21128064;28;20044;-77
2023/06/04 11:16:03;;;;;;;5.90;2.80;;;;;;;31.47;38.47;101351.16;21128360;27;20058;-77
2023/06/04 11:26:33;;;;;;;7.72;3.20;;;;;;;31.51;37.24;101353.59;21139985;27;20139;-77
2023/06/04 11:37:09;;;;;;;7.93;4.13;;;;;;;31.19;37.79;101355.56;21152652;28;20050;-79
2023/06/04 11:47:33;;;;;;;7.25;2.95;;;;;;;30.85;41.33;101364.88;21156235;28;20048;-78
2023/06/04 11:57:56;;;;;;;6.68;3.17;;;;;;;30.10;43.99;101348.34;21128509;28;20055;-77
2023/06/04 12:08:20;;;;;;;8.80;3.75;;;;;;;30.09;46.66;101346.59;21116982;27;20372;-77
2023/06/04 12:18:43;;;;;;;6.70;3.90;;;;;;;30.39;48.23;101330.34;21154683;27;20056;-77
2023/06/04 12:29:11;;;;;;;8.40;3.70;;;;;;;30.85;43.75;101323.94;21172225;27;20053;-77
2023/06/04 12:39:34;;;;;;;9.50;4.65;;;;;;;31.10;46.20;101325.25;21170630;27;20118;-77
2023/06/04 12:50:00;;;;;;;9.40;4.28;;;;;;;31.11;47.12;101318.84;21156284;27;20048;-76
2023/06/04 13:00:23;;;;;;;8.60;4.03;;;;;;;30.87;48.61;101319.28;21149517;27;20509;-76
2023/06/04 13:10:49;;;;;;;7.40;3.92;;;;;;;30.85;51.79;101323.94;21174142;27;20039;-77
2023/06/04 13:21:12;;;;;;;9.07;4.13;;;;;;;31.04;53.41;101317.41;21148572;27;20059;-76
2023/06/04 13:31:37;;;;;;;9.63;4.43;;;;;;;30.70;54.79;101313.09;21132304;27;20068;-77
2023/06/04 13:42:00;;;;;;;12.45;4.38;;;;;;;30.55;54.92;101301.25;21132812;27;20061;-77
2023/06/04 13:52:24;;;;;;;9.55;4.57;;;;;;;30.45;57.10;101300.91;21145918;27;20055;-76
2023/06/04 14:02:47;;;;;;;7.72;3.80;;;;;;;30.43;54.73;101291.03;21149068;27;20727;-76
2023/06/04 14:13:11;;;;;;;8.93;3.88;;;;;;;30.53;56.64;101281.38;21152154;28;20047;-76
2023/06/04 14:23:34;;;;;;;9.73;4.13;;;;;;;30.40;57.00;101277.56;21112909;27;20051;-77
2023/06/04 14:33:58;;;;;;;7.93;3.40;;;;;;;30.13;55.81;101271.03;21129965;27;20416;-77
2023/06/04 14:44:21;;;;;;;5.72;3.22;;;;;;;30.15;55.95;101266.34;21171360;27;20046;-77
2023/06/04 14:54:46;;;;;;;8.68;3.70;;;;;;;30.05;56.36;101258.72;21121685;27;20110;-76
2023/06/04 15:05:09;;;;;;;6.47;3.20;;;;;;;29.91;57.95;101253.16;21152648;27;20055;-77
2023/06/04 15:15:33;;;;;;;6.32;3.25;;;;;;;29.77;60.17;101244.00;21222743;27;20096;-77
2023/06/04 15:25:56;;;;;;;10.63;3.45;;;;;;;29.47;60.30;101254.78;21132753;27;20441;-77
2023/06/04 15:36:20;;;;;;;10.43;5.30;;;;;;;28.65;61.52;101260.00;21144292;28;20055;-77
2023/06/04 15:46:43;;;;;;;8.68;4.18;;;;;;;27.58;63.99;101263.47;21155819;28;20369;-77
2023/06/04 15:57:07;;;;;;;12.63;7.15;;;;;;;26.83;68.18;101274.06;21202296;27;20105;-76
2023/06/04 16:07:30;;;;;;;7.70;3.90;;;;;;;26.29;70.98;101263.75;21163452;27;20437;-76
2023/06/04 16:17:55;;;;;;;9.55;3.92;;;;;;;25.97;74.21;101254.19;21129751;28;20058;-78
2023/06/04 16:28:18;;;;;;;7.22;3.95;;;;;;;25.63;77.01;101255.53;21165119;27;20055;-77
2023/06/04 16:38:42;;;;;;;7.13;3.45;;;;;;;25.41;76.36;101263.53;21155836;27;20058;-73
2023/06/04 16:49:05;;;;;;;9.68;3.58;;;;;;;25.08;77.10;101262.06;21200056;27;20055;-73
2023/06/04 16:59:31;;;;;;;6.78;3.38;;;;;;;24.83;77.97;101271.97;21139073;27;20395;-72
2023/06/04 17:09:53;;;;;;;7.20;3.35;;;;;;;24.52;79.35;101264.94;21136203;27;20125;-73
2023/06/04 17:20:17;;;;;;;8.57;4.03;;;;;;;24.25;81.14;101252.34;21150690;27;20512;-73
2023/06/04 17:30:40;;;;;;;9.00;4.50;;;;;;;23.97;84.61;101264.94;21143486;28;20054;-73
2023/06/04 17:41:05;;;;;;;5.38;3.50;;;;;;;23.66;90.50;101257.81;21134291;27;20140;-74
2023/06/04 17:51:28;;;;;;;8.48;4.78;;;;;;;23.31;97.95;101266.00;21132942;27;20325;-73
2023/06/04 18:01:53;;;;;;;10.40;5.53;;;;;;;23.20;100.00;101274.41;21135360;27;20058;-73
2023/06/04 18:12:16;;;;;;;10.32;4.85;;;;;;;22.95;100.00;101259.84;21136143;27;20046;-74
2023/06/04 18:22:40;;;;;;;10.98;5.10;;;;;;;22.72;100.00;101252.34;21146065;27;20526;-73
2023/06/04 18:33:03;;;;;;;9.02;4.65;;;;;;;22.46;100.00;101263.78;21136202;27;20047;-72
2023/06/04 18:43:27;;;;;;;10.40;5.88;;;;;;;22.18;100.00;101276.19;21120266;27;20039;-73
2023/06/04 18:53:50;;;;;;;10.60;5.18;;;;;;;22.21;100.00;101278.78;21119131;27;20044;-72
2023/06/04 19:04:14;;;;;;;10.30;5.40;;;;;;;22.03;100.00;101290.88;21097619;27;20043;-74
2023/06/04 19:14:37;;;;;;;8.30;5.28;;;;;;;22.01;100.00;101303.44;21102781;27;20505;-72
2023/06/04 19:25:01;;;;;;;8.45;4.43;;;;;;;21.83;100.00;101307.41;21137150;27;20043;-74
2023/06/04 19:35:23;;;;;;;8.95;5.70;;;;;;;21.56;100.00;101315.16;21151555;28;20055;-74
2023/06/04 19:45:49;;;;;;;15.27;7.22;;;;;;;21.47;100.00;101306.38;21141466;28;20047;-74
2023/06/04 19:56:11;;;;;;;9.88;5.60;;;;;;;21.42;100.00;101305.59;21162340;28;20112;-74
2023/06/04 20:06:36;;;;;;;7.68;4.85;;;;;;;21.23;100.00;101300.63;21172010;27;20204;-73
2023/06/04 20:16:59;;;;;;;8.00;4.80;;;;;;;21.10;100.00;101316.03;21113234;27;20126;-73
2023/06/04 20:27:23;;;;;;;8.88;5.30;;;;;;;21.17;100.00;101295.38;21123544;28;20105;-73
2023/06/04 20:37:46;;;;;;;9.45;5.70;;;;;;;21.09;100.00;101299.03;21148900;27;20053;-74
2023/06/04 20:48:10;;;;;;;8.73;5.07;;;;;;;21.03;100.00;101291.09;21138071;27;20046;-74
2023/06/04 20:58:33;;;;;;;9.85;6.07;;;;;;;20.95;100.00;101278.72;21138655;28;20144;-74
2023/06/04 21:08:57;;;;;;;8.13;5.70;;;;;;;20.86;100.00;101274.44;21164605;27;20067;-74
2023/06/04 21:19:20;;;;;;;8.07;5.57;;;;;;;20.76;100.00;101274.63;21156803;27;20043;-74
2023/06/04 21:29:44;;;;;;;10.35;5.13;;;;;;;20.62;100.00;101275.75;21149632;27;20558;-75
2023/06/04 21:40:08;;;;;;;7.90;5.28;;;;;;;20.51;100.00;101276.84;21195325;27;20130;-74
2023/06/04 21:50:32;;;;;;;7.40;5.07;;;;;;;20.44;100.00;101273.41;21163025;27;20613;-74
2023/06/04 22:00:55;;;;;;;9.27;5.28;;;;;;;20.46;100.00;101265.31;21135966;27;20048;-74
2023/06/04 22:11:19;;;;;;;10.00;5.03;;;;;;;20.37;100.00;101273.50;21147531;27;20392;-74
2023/06/04 22:21:41;;;;;;;6.32;4.68;;;;;;;20.29;100.00;101250.34;21152491;27;20105;-73
2023/06/04 22:32:07;;;;;;;8.45;4.60;;;;;;;20.25;100.00;101250.44;21135911;27;20047;-73
2023/06/04 22:42:30;;;;;;;11.30;5.60;;;;;;;20.24;100.00;101237.94;21144282;27;20058;-74
2023/06/04 22:52:54;;;;;;;9.32;4.20;;;;;;;20.22;100.00;101215.63;21182480;27;20451;-73
2023/06/04 23:03:16;;;;;;;8.85;4.80;;;;;;;20.19;100.00;101210.31;21125053;27;20046;-73
2023/06/04 23:13:40;;;;;;;8.32;5.03;;;;;;;20.17;100.00;101207.66;21128169;27;20040;-74
2023/06/04 23:24:03;;;;;;;7.13;4.50;;;;;;;20.17;100.00;101204.09;21131892;27;20050;-73
2023/06/04 23:34:28;;;;;;;8.02;4.43;;;;;;;20.13;100.00;101197.91;21123560;28;20050;-74
2023/06/04 23:44:50;;;;;;;11.90;4.65;;;;;;;20.11;100.00;101193.47;21154775;28;20055;-74
2023/06/04 23:55:15;;;;;;;10.27;5.57;;;;;;;20.13;100.00;101188.97;21151508;28;20056;-73
